createdAt,value
2022-11-03T00:01:45.186Z,11.2
2022-11-03T00:03:48.544Z,11.2
2022-11-03T00:05:52.093Z,11.2
2022-11-03T00:07:55.648Z,11.2
2022-11-03T00:09:59.211Z,11.2
2022-11-03T00:12:02.774Z,11.1
2022-11-03T00:14:09.329Z,11
2022-11-03T00:16:12.878Z,11
2022-11-03T00:18:16.422Z,11.1
2022-11-03T00:20:20.015Z,11.1
2022-11-03T00:22:23.579Z,11
2022-11-03T00:24:27.127Z,11
2022-11-03T00:26:30.706Z,11
2022-11-03T00:30:40.909Z,11
2022-11-03T00:32:44.453Z,10.9
2022-11-03T00:36:51.626Z,11
2022-11-03T00:38:55.205Z,10.9
2022-11-03T00:40:58.770Z,10.9
2022-11-03T00:43:05.655Z,10.9
2022-11-03T00:47:12.581Z,10.9
2022-11-03T00:49:30.672Z,10.9
2022-11-03T00:51:34.549Z,10.9
2022-11-03T00:53:37.831Z,10.9
2022-11-03T00:55:44.477Z,10.9
2022-11-03T00:57:48.041Z,10.9
2022-11-03T00:59:51.611Z,10.9
2022-11-03T01:01:55.375Z,10.8
2022-11-03T01:03:58.799Z,10.8
2022-11-03T01:06:02.359Z,10.8
2022-11-03T01:08:05.938Z,10.7
2022-11-03T01:10:12.554Z,10.7
2022-11-03T01:12:16.143Z,10.7
2022-11-03T01:16:23.252Z,10.8
2022-11-03T01:18:26.836Z,10.8
2022-11-03T01:20:30.462Z,10.8
2022-11-03T01:22:34.040Z,10.7
2022-11-03T01:24:40.681Z,10.9
2022-11-03T01:26:44.253Z,10.8
2022-11-03T01:28:47.836Z,10.8
2022-11-03T01:30:51.419Z,10.8
2022-11-03T01:32:54.968Z,10.9
2022-11-03T01:34:58.573Z,10.8
2022-11-03T01:37:02.158Z,10.8
2022-11-03T01:39:08.816Z,10.8
2022-11-03T01:41:12.426Z,10.8
2022-11-03T01:43:15.929Z,10.8
2022-11-03T01:44:19.362Z,10.8
2022-11-03T01:46:22.866Z,10.7
2022-11-03T01:48:26.416Z,10.7
2022-11-03T01:50:30.004Z,10.8
2022-11-03T01:52:36.641Z,10.7
2022-11-03T01:54:40.219Z,10.7
2022-11-03T01:56:43.812Z,10.8
2022-11-03T01:58:47.377Z,10.8
2022-11-03T02:00:51.088Z,10.6
2022-11-03T02:02:54.556Z,10.7
2022-11-03T02:04:58.140Z,10.8
2022-11-03T02:07:04.769Z,10.8
2022-11-03T02:09:08.351Z,10.8
2022-11-03T02:11:11.955Z,10.7
2022-11-03T02:13:17.065Z,10.7
2022-11-03T02:15:20.601Z,10.7
2022-11-03T02:17:24.194Z,10.6
2022-11-03T02:19:27.769Z,10.7
2022-11-03T02:21:34.425Z,10.7
2022-11-03T02:23:37.976Z,10.7
2022-11-03T02:25:41.563Z,10.7
2022-11-03T02:27:45.128Z,10.6
2022-11-03T02:29:48.714Z,10.6
2022-11-03T02:31:52.273Z,10.6
2022-11-03T02:33:55.844Z,10.7
2022-11-03T02:36:02.539Z,10.6
2022-11-03T02:38:06.091Z,10.7
2022-11-03T02:40:09.668Z,10.6
2022-11-03T02:41:13.000Z,10.7
2022-11-03T02:43:16.586Z,10.5
2022-11-03T02:45:20.128Z,10.5
2022-11-03T02:47:23.733Z,10.5
2022-11-03T02:49:30.429Z,10.8
2022-11-03T02:51:33.985Z,10.8
2022-11-03T02:53:37.546Z,10.6
2022-11-03T02:55:41.150Z,10.7
2022-11-03T03:01:52.027Z,10.8
2022-11-03T03:06:02.149Z,10.8
2022-11-03T03:08:05.723Z,10.8
2022-11-03T03:10:09.300Z,10.8
2022-11-03T03:12:12.892Z,10.7
2022-11-03T03:14:16.507Z,10.8
2022-11-03T03:16:20.059Z,10.8
2022-11-03T03:20:30.260Z,10.8
2022-11-03T03:22:33.828Z,10.8
2022-11-03T03:26:40.976Z,10.8
2022-11-03T03:28:44.568Z,10.7
2022-11-03T03:32:54.828Z,10.6
2022-11-03T03:37:02.091Z,10.7
2022-11-03T03:42:12.427Z,10.5
2022-11-03T03:44:16.024Z,10.4
2022-11-03T03:46:22.678Z,10.4
2022-11-03T03:48:26.259Z,10.3
2022-11-03T03:50:29.828Z,10.3
2022-11-03T03:52:33.450Z,10.3
2022-11-03T03:54:37.006Z,10.2
2022-11-03T03:56:40.608Z,10.2
2022-11-03T03:58:44.164Z,10.2
2022-11-03T04:00:50.911Z,10.3
2022-11-03T04:02:54.404Z,10.2
2022-11-03T04:04:57.993Z,10.2
2022-11-03T04:07:01.573Z,10.1
2022-11-03T04:09:05.201Z,10.3
2022-11-03T04:13:12.357Z,10.5
2022-11-03T04:15:19.011Z,10.4
2022-11-03T04:17:22.587Z,10.5
2022-11-03T04:19:26.173Z,10.4
2022-11-03T04:21:29.734Z,10.4
2022-11-03T04:23:33.314Z,10.5
2022-11-03T04:25:36.878Z,10.5
2022-11-03T04:27:40.472Z,10.4
2022-11-03T04:29:47.146Z,10.5
2022-11-03T04:31:50.740Z,10.6
2022-11-03T04:33:54.324Z,10.5
2022-11-03T04:38:22.010Z,10.6
2022-11-03T04:40:25.601Z,10.7
2022-11-03T04:48:42.979Z,10.7
2022-11-03T04:52:50.144Z,10.7
2022-11-03T04:54:53.687Z,10.8
2022-11-03T04:57:00.399Z,10.9
2022-11-03T04:59:03.907Z,10.8
2022-11-03T05:01:07.605Z,10.8
2022-11-03T05:03:11.387Z,10.9
2022-11-03T05:09:21.786Z,10.7
2022-11-03T05:11:28.408Z,10.7
2022-11-03T05:13:31.984Z,10.7
2022-11-03T05:15:35.564Z,10.7
2022-11-03T05:19:42.683Z,10.8
2022-11-03T05:21:46.260Z,10.8
2022-11-03T05:25:56.513Z,10.7
2022-11-03T05:28:00.112Z,10.8
2022-11-03T05:30:03.694Z,10.7
2022-11-03T05:33:10.559Z,10.8
2022-11-03T05:35:14.177Z,10.8
2022-11-03T05:39:24.363Z,10.8
2022-11-03T05:41:27.948Z,10.8
2022-11-03T05:45:35.111Z,10.8
2022-11-03T05:47:38.693Z,10.9
2022-11-03T05:49:42.265Z,10.8
2022-11-03T05:51:45.831Z,10.8
2022-11-03T05:53:52.477Z,10.7
2022-11-03T05:55:56.056Z,10.9
2022-11-03T05:57:59.603Z,10.9
2022-11-03T06:00:03.236Z,10.8
2022-11-03T06:02:06.904Z,10.8
2022-11-03T06:04:10.316Z,10.8
2022-11-03T06:06:13.885Z,10.7
2022-11-03T06:08:20.590Z,10.9
2022-11-03T06:10:24.140Z,10.8
2022-11-03T06:12:27.644Z,10.9
2022-11-03T06:14:31.208Z,10.8
2022-11-03T06:16:34.794Z,10.8
2022-11-03T06:18:38.380Z,10.7
2022-11-03T06:20:41.957Z,10.7
2022-11-03T06:24:52.185Z,10.7
2022-11-03T06:26:55.764Z,10.8
2022-11-03T06:30:02.631Z,10.7
2022-11-03T06:32:06.201Z,10.8
2022-11-03T06:34:09.809Z,10.7
2022-11-03T06:36:16.430Z,10.7
2022-11-03T06:38:20.000Z,10.7
2022-11-03T06:40:23.581Z,10.7
2022-11-03T06:44:30.722Z,10.8
2022-11-03T06:46:34.264Z,10.8
2022-11-03T06:48:37.840Z,10.8
2022-11-03T06:54:51.660Z,10.9
2022-11-03T06:56:55.325Z,10.9
2022-11-03T07:01:03.619Z,11
2022-11-03T07:05:12.586Z,11.1
2022-11-03T07:07:16.131Z,11.1
2022-11-03T07:11:23.282Z,11.2
2022-11-03T07:13:26.848Z,11.2
2022-11-03T07:15:30.423Z,11.2
2022-11-03T07:17:34.003Z,11.2
2022-11-03T07:19:40.612Z,11.2
2022-11-03T07:21:44.176Z,11.3
2022-11-03T07:24:51.097Z,11.2
2022-11-03T07:31:01.819Z,11.3
2022-11-03T07:37:15.620Z,11.4
2022-11-03T07:39:19.164Z,11.4
2022-11-03T07:41:22.747Z,11.4
2022-11-03T07:43:26.326Z,11.5
2022-11-03T07:45:29.900Z,11.5
2022-11-03T07:47:36.557Z,11.5
2022-11-03T07:49:40.085Z,11.5
2022-11-03T07:51:43.634Z,11.6
2022-11-03T07:53:47.209Z,11.5
2022-11-03T07:55:50.796Z,11.6
2022-11-03T07:57:54.348Z,11.7
2022-11-03T07:59:57.911Z,11.7
2022-11-03T08:02:04.796Z,11.7
2022-11-03T08:04:08.133Z,11.7
2022-11-03T08:06:12.619Z,11.7
2022-11-03T08:08:15.262Z,11.7
2022-11-03T08:10:20.380Z,11.8
2022-11-03T08:12:23.863Z,11.8
2022-11-03T08:14:27.475Z,11.8
2022-11-03T08:16:34.098Z,11.9
2022-11-03T08:18:37.667Z,11.9
2022-11-03T08:20:41.229Z,11.9
2022-11-03T08:23:25.271Z,12
2022-11-03T08:25:14.837Z,12
2022-11-03T08:27:18.374Z,12.1
2022-11-03T08:29:24.994Z,12.2
2022-11-03T08:31:28.588Z,12.2
2022-11-03T08:33:32.491Z,12.2
2022-11-03T08:35:35.621Z,12.3
2022-11-03T08:39:42.717Z,12.3
2022-11-03T08:41:46.275Z,12.3
2022-11-03T08:43:52.917Z,12.4
2022-11-03T08:45:56.865Z,12.4
2022-11-03T08:47:59.978Z,12.5
2022-11-03T08:50:03.562Z,12.5
2022-11-03T08:52:07.119Z,12.5
2022-11-03T08:54:10.686Z,12.6
2022-11-03T08:56:15.175Z,12.6
2022-11-03T08:58:20.854Z,12.6
2022-11-03T09:00:24.465Z,12.7
2022-11-03T09:02:28.016Z,12.7
2022-11-03T09:10:42.705Z,12.8
2022-11-03T09:12:48.765Z,12.9
2022-11-03T09:14:52.353Z,12.9
2022-11-03T09:16:55.856Z,13
2022-11-03T09:20:02.719Z,13
2022-11-03T09:22:06.208Z,13.1
2022-11-03T09:24:09.758Z,13.2
2022-11-03T09:26:16.572Z,13.2
2022-11-03T09:30:23.476Z,13.2
2022-11-03T09:32:26.975Z,13.2
2022-11-03T09:34:30.546Z,13.3
2022-11-03T09:36:34.082Z,13.1
2022-11-03T09:38:37.612Z,13.2
2022-11-03T09:40:44.254Z,13.2
2022-11-03T09:42:47.734Z,13.2
2022-11-03T09:44:51.273Z,13.2
2022-11-03T09:46:57.807Z,13.2
2022-11-03T09:48:58.295Z,13.2
2022-11-03T09:51:01.874Z,13.3
2022-11-03T09:53:05.694Z,13.3
2022-11-03T09:55:11.982Z,13.3
2022-11-03T09:57:15.491Z,13.4
2022-11-03T09:59:19.012Z,13.6
2022-11-03T10:01:22.690Z,13.8
2022-11-03T10:03:26.037Z,13.9
2022-11-03T10:05:29.578Z,14.1
2022-11-03T10:07:33.120Z,14.2
2022-11-03T10:11:43.216Z,14.3
2022-11-03T10:13:46.761Z,14.4
2022-11-03T10:16:53.794Z,14.7
2022-11-03T10:18:57.045Z,14.8
2022-11-03T10:21:00.552Z,14.8
2022-11-03T10:23:07.509Z,14.7
2022-11-03T10:25:10.668Z,14.6
2022-11-03T10:27:14.124Z,14.5
2022-11-03T10:29:17.613Z,14.4
2022-11-03T10:31:21.125Z,14.3
2022-11-03T10:33:24.604Z,14.2
2022-11-03T10:35:28.113Z,14.1
2022-11-03T10:37:34.665Z,14
2022-11-03T10:39:38.189Z,14
2022-11-03T10:41:41.686Z,14
2022-11-03T10:43:45.155Z,14
2022-11-03T10:45:48.652Z,13.9
2022-11-03T10:47:55.607Z,13.9
2022-11-03T10:49:55.609Z,13.9
2022-11-03T10:52:02.173Z,13.8
2022-11-03T10:54:05.684Z,13.9
2022-11-03T10:56:09.165Z,13.9
2022-11-03T10:58:12.657Z,13.8
2022-11-03T11:00:16.590Z,13.8
2022-11-03T11:02:19.749Z,13.8
2022-11-03T11:04:23.285Z,13.7
2022-11-03T11:06:29.736Z,13.7
2022-11-03T11:10:36.719Z,13.8
2022-11-03T11:13:43.531Z,13.8
2022-11-03T11:15:47.045Z,13.8
2022-11-03T11:17:50.527Z,13.8
2022-11-03T11:19:57.111Z,13.9
2022-11-03T11:22:00.635Z,13.9
2022-11-03T11:28:11.119Z,14
2022-11-03T11:32:18.145Z,14.1
2022-11-03T11:34:24.695Z,14.4
2022-11-03T11:36:28.194Z,14.5
2022-11-03T11:38:31.730Z,14.6
2022-11-03T11:40:35.244Z,15.4
2022-11-03T11:42:38.955Z,16
2022-11-03T11:44:42.271Z,16.5
2022-11-03T11:46:45.708Z,16.4
2022-11-03T11:48:52.327Z,15.9
2022-11-03T11:50:55.835Z,15.5
2022-11-03T11:52:59.313Z,15.1
2022-11-03T11:55:02.814Z,14.9
2022-11-03T11:57:06.275Z,15
2022-11-03T11:59:09.788Z,14.9
2022-11-03T12:01:13.326Z,15
2022-11-03T12:03:19.867Z,15
2022-11-03T12:05:23.288Z,15
2022-11-03T12:07:26.782Z,15
2022-11-03T12:09:50.959Z,15.1
2022-11-03T12:16:04.514Z,15.6
2022-11-03T12:18:08.440Z,15.8
2022-11-03T12:20:11.491Z,15.9
2022-11-03T12:22:14.905Z,15.7
2022-11-03T12:24:18.419Z,15.6
2022-11-03T12:26:22.051Z,15.4
2022-11-03T12:28:25.298Z,15.4
2022-11-03T12:30:36.857Z,15.3
2022-11-03T12:32:35.692Z,15.3
2022-11-03T12:34:38.776Z,15.3
2022-11-03T12:36:42.250Z,15.4
2022-11-03T12:38:45.720Z,15.3
2022-11-03T12:40:49.184Z,15.8
2022-11-03T12:42:52.653Z,15.9
2022-11-03T12:44:59.213Z,15.7
2022-11-03T12:47:02.681Z,15.6
2022-11-03T12:49:06.147Z,15.4
2022-11-03T12:51:09.602Z,15.4
2022-11-03T12:53:13.091Z,15.6
2022-11-03T12:55:16.589Z,15.6
2022-11-03T12:57:19.987Z,15.6
2022-11-03T12:59:26.569Z,15.7
2022-11-03T13:01:30.198Z,15.7
2022-11-03T13:03:33.462Z,15.8
2022-11-03T13:04:36.783Z,15.7
2022-11-03T13:06:40.178Z,15.7
2022-11-03T13:08:45.602Z,15.8
2022-11-03T13:10:47.081Z,15.9
2022-11-03T13:12:53.646Z,15.7
2022-11-03T13:14:57.091Z,15.6
2022-11-03T13:17:00.621Z,15.5
2022-11-03T13:19:04.009Z,15.5
2022-11-03T13:21:07.478Z,15.5
2022-11-03T13:23:11.177Z,15.6
2022-11-03T13:25:14.461Z,15.8
2022-11-03T13:27:20.936Z,15.9
2022-11-03T13:29:24.422Z,15.9
2022-11-03T13:31:27.836Z,15.8
2022-11-03T13:33:31.306Z,15.7
2022-11-03T13:35:34.786Z,15.8
2022-11-03T13:37:38.247Z,16
2022-11-03T13:39:41.683Z,16.1
2022-11-03T13:41:48.216Z,15.8
2022-11-03T13:43:51.662Z,15.8
2022-11-03T13:45:55.116Z,15.7
2022-11-03T14:00:22.441Z,15.2
2022-11-03T14:07:37.655Z,15.2
2022-11-03T14:11:52.265Z,15.3
2022-11-03T14:15:54.593Z,15.2
2022-11-03T14:17:58.077Z,15.2
2022-11-03T14:20:04.654Z,15.1
2022-11-03T14:22:05.026Z,15.1
2022-11-03T14:24:11.595Z,15
2022-11-03T14:26:25.317Z,14.9
2022-11-03T14:28:25.641Z,14.9
2022-11-03T14:32:25.500Z,14.7
2022-11-03T14:34:29.003Z,14.7
2022-11-03T14:38:38.994Z,14.5
2022-11-03T14:40:42.489Z,14.5
2022-11-03T14:42:45.928Z,14.5
2022-11-03T14:44:49.442Z,14.5
2022-11-03T14:46:52.889Z,14.4
2022-11-03T14:48:56.393Z,14.4
2022-11-03T14:50:59.867Z,14.4
2022-11-03T14:53:06.441Z,14.4
2022-11-03T14:55:09.941Z,14.4
2022-11-03T14:57:13.399Z,14.3
2022-11-03T14:58:16.703Z,14.3
2022-11-03T15:00:20.158Z,14.3
2022-11-03T15:02:23.744Z,14.3
2022-11-03T15:04:27.152Z,14.2
2022-11-03T15:06:33.751Z,14.2
2022-11-03T15:08:37.217Z,14.2
2022-11-03T15:10:40.720Z,14.2
2022-11-03T15:12:44.181Z,14.2
2022-11-03T15:14:47.688Z,14.2
2022-11-03T15:16:51.171Z,14.2
2022-11-03T15:18:54.686Z,14.2
2022-11-03T15:21:01.231Z,14.2
2022-11-03T15:27:11.697Z,14.1
2022-11-03T15:29:15.224Z,14.1
2022-11-03T15:31:18.711Z,14.1
2022-11-03T15:33:22.206Z,14.1
2022-11-03T15:35:28.784Z,13.9
2022-11-03T15:37:32.265Z,13.9
2022-11-03T15:39:35.733Z,13.7
2022-11-03T15:41:39.257Z,13.6
2022-11-03T15:43:42.751Z,13.6
2022-11-03T15:45:46.241Z,13.5
2022-11-03T15:47:51.075Z,13.5
2022-11-03T15:49:56.358Z,13.4
2022-11-03T15:51:59.853Z,13.4
2022-11-03T15:54:03.347Z,13.3
2022-11-03T15:56:27.674Z,13.1
2022-11-03T15:58:31.105Z,13.1
2022-11-03T16:00:34.657Z,13
2022-11-03T16:02:42.335Z,12.8
2022-11-03T16:04:44.751Z,12.8
2022-11-03T16:07:07.722Z,12.8
2022-11-03T16:08:51.785Z,12.6
2022-11-03T16:10:58.157Z,12.5
2022-11-03T16:12:58.816Z,12.5
2022-11-03T16:15:02.377Z,12.5
2022-11-03T16:17:09.517Z,12.4
2022-11-03T16:19:18.365Z,12.4
2022-11-03T16:21:16.011Z,12.3
2022-11-03T16:23:19.604Z,12.2
2022-11-03T16:25:23.056Z,12.4
2022-11-03T16:27:26.602Z,12.4
2022-11-03T16:31:36.700Z,12.2
2022-11-03T16:33:40.249Z,12.4
2022-11-03T16:39:44.802Z,12.3
2022-11-03T16:45:58.401Z,12.1
2022-11-03T16:50:05.473Z,12.3
2022-11-03T16:51:08.725Z,12
2022-11-03T16:53:12.238Z,12.1
2022-11-03T16:57:19.285Z,12.2
2022-11-03T16:59:25.932Z,12.1
2022-11-03T17:03:32.963Z,12.1
2022-11-03T17:05:36.468Z,11.8
2022-11-03T17:07:39.977Z,11.8
2022-11-03T17:09:43.501Z,12.1
2022-11-03T17:11:47.044Z,11.7
2022-11-03T17:13:53.675Z,11.7
2022-11-03T17:15:57.164Z,12
2022-11-03T17:20:04.114Z,12
2022-11-03T17:22:07.605Z,12
2022-11-03T17:24:11.173Z,11.8
2022-11-03T17:26:14.694Z,11.4
2022-11-03T17:30:24.855Z,11.7
2022-11-03T17:32:28.412Z,11.8
2022-11-03T17:34:32.090Z,11.5
2022-11-03T17:40:42.518Z,11.1
2022-11-03T17:42:49.111Z,11.4
2022-11-03T17:44:52.652Z,11
2022-11-03T17:46:56.181Z,11.4
2022-11-03T17:47:59.501Z,11.1
2022-11-03T17:52:06.577Z,11.2
2022-11-03T17:56:29.709Z,11.7
2022-11-03T17:58:20.308Z,11.3
2022-11-03T18:00:23.830Z,10.9
2022-11-03T18:02:27.558Z,11
2022-11-03T18:04:30.924Z,10.9
2022-11-03T18:06:37.404Z,11.6
2022-11-03T18:08:38.039Z,11.5
2022-11-03T18:10:44.611Z,11.2
2022-11-03T18:12:48.140Z,11
2022-11-03T18:14:51.715Z,10.9
2022-11-03T18:16:55.249Z,10.9
2022-11-03T18:18:58.814Z,10.8
2022-11-03T18:21:02.375Z,11.3
2022-11-03T18:23:05.924Z,11.4
2022-11-03T18:25:12.607Z,11.4
2022-11-03T18:27:16.156Z,11.4
2022-11-03T18:29:19.682Z,11.4
2022-11-03T18:31:23.220Z,11.1
2022-11-03T18:33:26.798Z,11.3
2022-11-03T18:35:30.354Z,11.4
2022-11-03T18:37:33.931Z,11.3
2022-11-03T18:39:40.545Z,11.7
2022-11-03T18:41:44.109Z,10.9
2022-11-03T18:43:47.672Z,11.2
2022-11-03T18:44:50.986Z,11
2022-11-03T18:46:54.561Z,11.5
2022-11-03T18:48:58.119Z,11.4
2022-11-03T18:51:03.214Z,11.6
2022-11-03T18:53:17.677Z,11.4
2022-11-03T18:55:11.899Z,11
2022-11-03T18:57:15.443Z,11.4
2022-11-03T18:59:19.025Z,11.7
2022-11-03T19:01:22.768Z,11.3
2022-11-03T19:03:26.101Z,11.5
2022-11-03T19:05:29.667Z,11.9
2022-11-03T19:07:36.280Z,11.7
2022-11-03T19:09:39.842Z,11.7
2022-11-03T19:11:43.391Z,11.8
2022-11-03T19:13:46.965Z,11.7
2022-11-03T19:17:54.099Z,11.9
2022-11-03T19:22:04.241Z,11.7
2022-11-03T19:24:07.804Z,11.9
2022-11-03T19:28:14.917Z,11.6
2022-11-03T19:30:18.432Z,11.6
2022-11-03T19:32:22.035Z,11.4
2022-11-03T19:34:25.561Z,11.9
2022-11-03T19:36:32.205Z,11.6
2022-11-03T19:40:39.317Z,11.4
2022-11-03T19:45:04.960Z,12
2022-11-03T19:47:08.509Z,11.5
2022-11-03T19:49:15.130Z,12.1
2022-11-03T19:51:18.687Z,11.7
2022-11-03T19:53:22.215Z,11.8
2022-11-03T19:55:25.773Z,12.1
2022-11-03T20:01:37.075Z,11.6
2022-11-03T20:03:43.467Z,11.5
2022-11-03T20:05:49.321Z,11.9
2022-11-03T20:07:50.573Z,12
2022-11-03T20:09:54.103Z,11.7
2022-11-03T20:11:57.644Z,11.6
2022-11-03T20:14:01.172Z,11.9
2022-11-03T20:16:04.762Z,12
2022-11-03T20:18:11.381Z,11.4
2022-11-03T20:20:14.934Z,11.5
2022-11-03T20:22:18.504Z,11.5
2022-11-03T20:24:22.056Z,11.5
2022-11-03T20:26:25.592Z,11.7
2022-11-03T20:28:29.197Z,11.7
2022-11-03T20:30:32.720Z,11.8
2022-11-03T20:32:39.376Z,11.7
2022-11-03T20:34:44.387Z,11.7
2022-11-03T20:36:46.433Z,11.8
2022-11-03T20:37:49.735Z,11.9
2022-11-03T20:39:53.296Z,11.5
2022-11-03T20:41:56.863Z,11.8
2022-11-03T20:44:00.446Z,12
2022-11-03T20:46:07.032Z,11.5
2022-11-03T20:48:10.753Z,11.9
2022-11-03T20:50:14.126Z,11.4
2022-11-03T20:52:17.694Z,11.6
2022-11-03T20:56:24.781Z,12
2022-11-03T21:00:34.983Z,11.8
2022-11-03T21:06:45.609Z,11.9
2022-11-03T21:08:49.183Z,12.1
2022-11-03T21:12:56.273Z,12
2022-11-03T21:17:06.400Z,11.8
2022-11-03T21:19:09.923Z,11.5
2022-11-03T21:21:18.132Z,11.6
2022-11-03T21:27:24.129Z,11.7
2022-11-03T21:31:34.304Z,11.9
2022-11-03T21:34:41.151Z,11.5
2022-11-03T21:36:44.707Z,11.9
2022-11-03T21:40:56.326Z,11.7
2022-11-03T21:42:58.434Z,11.9
2022-11-03T21:47:05.534Z,12
2022-11-03T21:53:16.183Z,11.7
2022-11-03T21:55:19.713Z,11.8
2022-11-03T21:57:26.358Z,11.8
2022-11-03T21:59:29.886Z,12
2022-11-03T22:01:33.483Z,11.5
2022-11-03T22:03:36.950Z,11.6
2022-11-03T22:07:44.045Z,11.7
2022-11-03T22:09:47.593Z,11.6
2022-11-03T22:11:54.199Z,11.7
2022-11-03T22:13:57.797Z,11.6
2022-11-03T22:16:01.492Z,11.7
2022-11-03T22:18:04.935Z,12
2022-11-03T22:20:08.435Z,11.6
2022-11-03T22:22:11.975Z,11.2
2022-11-03T22:24:15.534Z,11.6
2022-11-03T22:28:25.868Z,11.5
2022-11-03T22:30:29.415Z,11.5
2022-11-03T22:35:39.801Z,11.5
2022-11-03T22:37:43.421Z,11
2022-11-03T22:39:50.070Z,11.5
2022-11-03T22:41:53.564Z,10.9
2022-11-03T22:43:57.109Z,11.4
2022-11-03T22:46:00.678Z,11
2022-11-03T22:48:04.247Z,10.6
2022-11-03T22:50:07.783Z,11
2022-11-03T22:52:11.323Z,10.9
2022-11-03T22:54:17.941Z,10.8
2022-11-03T22:56:21.539Z,10.6
2022-11-03T22:58:30.200Z,10.9
2022-11-03T23:00:28.644Z,11.3
2022-11-03T23:02:32.274Z,10.5
2022-11-03T23:06:39.298Z,10.5
2022-11-03T23:08:45.898Z,10.7
2022-11-03T23:10:49.471Z,10.8
2022-11-03T23:12:53.017Z,11.1
2022-11-03T23:14:56.583Z,10.8
2022-11-03T23:17:00.170Z,10.5
2022-11-03T23:19:03.727Z,10.7
2022-11-03T23:21:07.256Z,10.8
2022-11-03T23:23:13.925Z,10.5
2022-11-03T23:25:17.497Z,10.9
2022-11-03T23:27:21.053Z,10.9
2022-11-03T23:29:45.236Z,11.2
2022-11-03T23:31:48.767Z,10.5
2022-11-03T23:33:52.373Z,10.8
2022-11-03T23:35:58.995Z,11.2
2022-11-03T23:38:02.547Z,11
2022-11-03T23:40:06.113Z,10.7
2022-11-03T23:42:09.657Z,10.9
2022-11-03T23:44:13.243Z,10.7
2022-11-03T23:46:16.807Z,10.5
2022-11-03T23:48:20.380Z,10.9
2022-11-03T23:50:27.009Z,11.1
2022-11-03T23:56:37.735Z,11
